sensor_id;sensor_type;location;lat;lon;timestamp;P1;durP1;ratioP1;P2;durP2;ratioP2
75413;SDS011;64758;52.122;5.404;2023-12-28T00:01:45;3.85;;;1.50;;
75413;SDS011;64758;52.122;5.404;2023-12-28T00:04:12;4.05;;;1.52;;
75413;SDS011;64758;52.122;5.404;2023-12-28T00:06:39;5.50;;;1.65;;
75413;SDS011;64758;52.122;5.404;2023-12-28T00:09:07;2.22;;;1.38;;
75413;SDS011;64758;52.122;5.404;2023-12-28T00:11:37;3.57;;;1.50;;
75413;SDS011;64758;52.122;5.404;2023-12-28T00:14:05;3.88;;;1.75;;
75413;SDS011;64758;52.122;5.404;2023-12-28T00:16:31;2.97;;;1.35;;
75413;SDS011;64758;52.122;5.404;2023-12-28T00:19:00;5.63;;;1.33;;
75413;SDS011;64758;52.122;5.404;2023-12-28T00:21:29;4.85;;;1.33;;
75413;SDS011;64758;52.122;5.404;2023-12-28T00:23:58;2.50;;;1.30;;
75413;SDS011;64758;52.122;5.404;2023-12-28T00:26:25;3.00;;;1.08;;
75413;SDS011;64758;52.122;5.404;2023-12-28T00:28:51;3.33;;;1.27;;
75413;SDS011;64758;52.122;5.404;2023-12-28T00:31:18;5.20;;;1.38;;
75413;SDS011;64758;52.122;5.404;2023-12-28T00:33:44;3.65;;;1.45;;
75413;SDS011;64758;52.122;5.404;2023-12-28T00:36:11;4.40;;;1.67;;
75413;SDS011;64758;52.122;5.404;2023-12-28T00:38:38;3.60;;;1.52;;
75413;SDS011;64758;52.122;5.404;2023-12-28T00:41:04;2.55;;;1.10;;
75413;SDS011;64758;52.122;5.404;2023-12-28T00:43:31;2.60;;;1.50;;
75413;SDS011;64758;52.122;5.404;2023-12-28T00:45:57;4.10;;;1.33;;
75413;SDS011;64758;52.122;5.404;2023-12-28T00:48:24;2.47;;;1.57;;
75413;SDS011;64758;52.122;5.404;2023-12-28T00:50:52;3.05;;;1.50;;
75413;SDS011;64758;52.122;5.404;2023-12-28T00:53:21;3.53;;;1.30;;
75413;SDS011;64758;52.122;5.404;2023-12-28T00:55:48;4.80;;;1.60;;
75413;SDS011;64758;52.122;5.404;2023-12-28T00:58:15;4.07;;;1.85;;
75413;SDS011;64758;52.122;5.404;2023-12-28T01:00:41;3.80;;;1.37;;
75413;SDS011;64758;52.122;5.404;2023-12-28T01:03:08;3.58;;;1.50;;
75413;SDS011;64758;52.122;5.404;2023-12-28T01:05:35;3.25;;;1.33;;
75413;SDS011;64758;52.122;5.404;2023-12-28T01:08:02;3.78;;;1.20;;
75413;SDS011;64758;52.122;5.404;2023-12-28T01:10:28;4.03;;;1.60;;
75413;SDS011;64758;52.122;5.404;2023-12-28T01:12:55;2.90;;;1.07;;
75413;SDS011;64758;52.122;5.404;2023-12-28T01:15:22;4.15;;;1.33;;
75413;SDS011;64758;52.122;5.404;2023-12-28T01:17:48;1.52;;;1.10;;
75413;SDS011;64758;52.122;5.404;2023-12-28T01:20:15;5.20;;;1.58;;
75413;SDS011;64758;52.122;5.404;2023-12-28T01:22:42;2.83;;;1.40;;
75413;SDS011;64758;52.122;5.404;2023-12-28T01:25:08;4.20;;;1.20;;
75413;SDS011;64758;52.122;5.404;2023-12-28T01:27:35;2.88;;;1.15;;
75413;SDS011;64758;52.122;5.404;2023-12-28T01:30:01;2.80;;;1.20;;
75413;SDS011;64758;52.122;5.404;2023-12-28T01:32:28;2.65;;;1.02;;
75413;SDS011;64758;52.122;5.404;2023-12-28T01:34:54;4.18;;;1.38;;
75413;SDS011;64758;52.122;5.404;2023-12-28T01:37:21;4.23;;;1.40;;
75413;SDS011;64758;52.122;5.404;2023-12-28T01:39:48;3.85;;;1.40;;
75413;SDS011;64758;52.122;5.404;2023-12-28T01:42:14;4.80;;;1.35;;
75413;SDS011;64758;52.122;5.404;2023-12-28T01:44:41;2.53;;;1.52;;
75413;SDS011;64758;52.122;5.404;2023-12-28T01:47:08;5.38;;;1.52;;
75413;SDS011;64758;52.122;5.404;2023-12-28T01:49:34;3.67;;;1.53;;
75413;SDS011;64758;52.122;5.404;2023-12-28T01:52:03;4.47;;;1.52;;
75413;SDS011;64758;52.122;5.404;2023-12-28T01:54:30;3.80;;;1.60;;
75413;SDS011;64758;52.122;5.404;2023-12-28T01:56:58;4.78;;;1.70;;
75413;SDS011;64758;52.122;5.404;2023-12-28T01:59:26;3.72;;;1.50;;
75413;SDS011;64758;52.122;5.404;2023-12-28T02:01:53;3.83;;;1.40;;
75413;SDS011;64758;52.122;5.404;2023-12-28T02:04:20;3.30;;;1.17;;
75413;SDS011;64758;52.122;5.404;2023-12-28T02:06:57;4.32;;;1.10;;
75413;SDS011;64758;52.122;5.404;2023-12-28T02:09:26;3.80;;;1.50;;
75413;SDS011;64758;52.122;5.404;2023-12-28T02:11:53;4.32;;;1.60;;
75413;SDS011;64758;52.122;5.404;2023-12-28T02:14:23;2.20;;;1.03;;
75413;SDS011;64758;52.122;5.404;2023-12-28T02:22:03;1.70;;;1.10;;
75413;SDS011;64758;52.122;5.404;2023-12-28T02:24:30;2.92;;;1.10;;
75413;SDS011;64758;52.122;5.404;2023-12-28T02:26:56;3.50;;;1.27;;
75413;SDS011;64758;52.122;5.404;2023-12-28T02:29:23;2.33;;;1.20;;
75413;SDS011;64758;52.122;5.404;2023-12-28T02:31:51;3.47;;;1.15;;
75413;SDS011;64758;52.122;5.404;2023-12-28T02:34:29;3.90;;;1.15;;
75413;SDS011;64758;52.122;5.404;2023-12-28T02:37:00;1.77;;;1.00;;
75413;SDS011;64758;52.122;5.404;2023-12-28T02:39:27;5.13;;;1.30;;
75413;SDS011;64758;52.122;5.404;2023-12-28T02:41:56;3.33;;;1.08;;
75413;SDS011;64758;52.122;5.404;2023-12-28T02:44:23;4.47;;;1.08;;
75413;SDS011;64758;52.122;5.404;2023-12-28T02:46:50;2.83;;;0.80;;
75413;SDS011;64758;52.122;5.404;2023-12-28T02:49:16;4.35;;;1.20;;
75413;SDS011;64758;52.122;5.404;2023-12-28T02:51:43;3.77;;;0.90;;
75413;SDS011;64758;52.122;5.404;2023-12-28T02:54:10;2.17;;;0.93;;
75413;SDS011;64758;52.122;5.404;2023-12-28T02:56:36;5.88;;;1.08;;
75413;SDS011;64758;52.122;5.404;2023-12-28T02:59:03;2.38;;;0.80;;
75413;SDS011;64758;52.122;5.404;2023-12-28T03:01:29;3.08;;;1.13;;
75413;SDS011;64758;52.122;5.404;2023-12-28T03:03:56;4.50;;;1.00;;
75413;SDS011;64758;52.122;5.404;2023-12-28T03:06:23;5.32;;;1.25;;
75413;SDS011;64758;52.122;5.404;2023-12-28T03:08:49;5.45;;;0.88;;
75413;SDS011;64758;52.122;5.404;2023-12-28T03:11:16;4.85;;;1.10;;
75413;SDS011;64758;52.122;5.404;2023-12-28T03:13:43;6.20;;;0.88;;
75413;SDS011;64758;52.122;5.404;2023-12-28T03:16:10;4.80;;;1.00;;
75413;SDS011;64758;52.122;5.404;2023-12-28T03:18:36;4.93;;;0.82;;
75413;SDS011;64758;52.122;5.404;2023-12-28T03:21:03;5.13;;;0.90;;
75413;SDS011;64758;52.122;5.404;2023-12-28T03:23:29;2.05;;;0.57;;
75413;SDS011;64758;52.122;5.404;2023-12-28T03:25:56;2.53;;;0.80;;
75413;SDS011;64758;52.122;5.404;2023-12-28T03:28:22;6.70;;;1.00;;
75413;SDS011;64758;52.122;5.404;2023-12-28T03:30:49;7.07;;;1.10;;
75413;SDS011;64758;52.122;5.404;2023-12-28T03:33:16;3.65;;;0.90;;
75413;SDS011;64758;52.122;5.404;2023-12-28T03:35:42;3.70;;;0.73;;
75413;SDS011;64758;52.122;5.404;2023-12-28T03:38:09;3.55;;;0.68;;
75413;SDS011;64758;52.122;5.404;2023-12-28T03:40:35;3.47;;;0.83;;
75413;SDS011;64758;52.122;5.404;2023-12-28T03:43:02;7.07;;;1.13;;
75413;SDS011;64758;52.122;5.404;2023-12-28T03:45:29;4.47;;;0.70;;
75413;SDS011;64758;52.122;5.404;2023-12-28T03:47:55;3.33;;;0.77;;
75413;SDS011;64758;52.122;5.404;2023-12-28T03:50:23;4.75;;;1.05;;
75413;SDS011;64758;52.122;5.404;2023-12-28T03:52:49;4.17;;;1.10;;
75413;SDS011;64758;52.122;5.404;2023-12-28T03:55:16;3.10;;;1.25;;
75413;SDS011;64758;52.122;5.404;2023-12-28T03:57:42;7.43;;;0.95;;
75413;SDS011;64758;52.122;5.404;2023-12-28T04:00:12;2.95;;;0.70;;
75413;SDS011;64758;52.122;5.404;2023-12-28T04:02:39;5.07;;;0.85;;
75413;SDS011;64758;52.122;5.404;2023-12-28T04:05:06;6.97;;;1.07;;
75413;SDS011;64758;52.122;5.404;2023-12-28T04:07:33;2.72;;;0.75;;
75413;SDS011;64758;52.122;5.404;2023-12-28T04:10:00;4.05;;;1.50;;
75413;SDS011;64758;52.122;5.404;2023-12-28T04:12:27;2.50;;;0.80;;
75413;SDS011;64758;52.122;5.404;2023-12-28T04:14:54;5.57;;;0.90;;
75413;SDS011;64758;52.122;5.404;2023-12-28T04:17:21;4.17;;;0.57;;
75413;SDS011;64758;52.122;5.404;2023-12-28T04:19:47;5.72;;;0.93;;
75413;SDS011;64758;52.122;5.404;2023-12-28T04:22:14;3.33;;;0.88;;
75413;SDS011;64758;52.122;5.404;2023-12-28T04:24:41;4.57;;;0.85;;
75413;SDS011;64758;52.122;5.404;2023-12-28T04:27:07;4.57;;;1.27;;
75413;SDS011;64758;52.122;5.404;2023-12-28T04:29:35;6.63;;;0.87;;
75413;SDS011;64758;52.122;5.404;2023-12-28T04:32:01;6.78;;;1.10;;
75413;SDS011;64758;52.122;5.404;2023-12-28T04:34:28;8.18;;;0.88;;
75413;SDS011;64758;52.122;5.404;2023-12-28T04:36:55;6.65;;;1.13;;
75413;SDS011;64758;52.122;5.404;2023-12-28T04:39:21;5.88;;;0.77;;
75413;SDS011;64758;52.122;5.404;2023-12-28T04:41:48;7.33;;;0.97;;
75413;SDS011;64758;52.122;5.404;2023-12-28T04:44:14;4.65;;;0.80;;
75413;SDS011;64758;52.122;5.404;2023-12-28T04:46:41;3.58;;;0.70;;
75413;SDS011;64758;52.122;5.404;2023-12-28T04:49:10;4.50;;;0.60;;
75413;SDS011;64758;52.122;5.404;2023-12-28T04:51:41;6.28;;;1.13;;
75413;SDS011;64758;52.122;5.404;2023-12-28T04:54:11;5.63;;;1.23;;
75413;SDS011;64758;52.122;5.404;2023-12-28T04:56:37;6.15;;;0.98;;
75413;SDS011;64758;52.122;5.404;2023-12-28T04:59:04;4.18;;;1.05;;
75413;SDS011;64758;52.122;5.404;2023-12-28T05:01:30;4.68;;;0.80;;
75413;SDS011;64758;52.122;5.404;2023-12-28T05:03:59;8.07;;;1.05;;
75413;SDS011;64758;52.122;5.404;2023-12-28T05:06:27;1.90;;;0.50;;
75413;SDS011;64758;52.122;5.404;2023-12-28T05:08:56;10.43;;;1.00;;
75413;SDS011;64758;52.122;5.404;2023-12-28T05:11:22;4.47;;;0.60;;
75413;SDS011;64758;52.122;5.404;2023-12-28T05:13:49;4.70;;;0.85;;
75413;SDS011;64758;52.122;5.404;2023-12-28T05:16:15;5.43;;;0.98;;
75413;SDS011;64758;52.122;5.404;2023-12-28T05:18:42;9.37;;;1.03;;
75413;SDS011;64758;52.122;5.404;2023-12-28T05:21:08;7.00;;;1.00;;
75413;SDS011;64758;52.122;5.404;2023-12-28T05:23:35;5.18;;;0.98;;
75413;SDS011;64758;52.122;5.404;2023-12-28T05:26:01;9.45;;;1.15;;
75413;SDS011;64758;52.122;5.404;2023-12-28T05:28:28;13.73;;;1.23;;
75413;SDS011;64758;52.122;5.404;2023-12-28T05:30:54;5.53;;;1.00;;
75413;SDS011;64758;52.122;5.404;2023-12-28T05:33:21;10.98;;;0.82;;
75413;SDS011;64758;52.122;5.404;2023-12-28T05:35:48;5.50;;;0.90;;
75413;SDS011;64758;52.122;5.404;2023-12-28T05:38:15;7.32;;;0.90;;
75413;SDS011;64758;52.122;5.404;2023-12-28T05:40:41;7.68;;;0.70;;
75413;SDS011;64758;52.122;5.404;2023-12-28T05:43:11;6.80;;;0.90;;
75413;SDS011;64758;52.122;5.404;2023-12-28T05:45:37;6.75;;;1.00;;
75413;SDS011;64758;52.122;5.404;2023-12-28T05:48:04;6.35;;;0.85;;
75413;SDS011;64758;52.122;5.404;2023-12-28T05:50:31;3.85;;;0.80;;
75413;SDS011;64758;52.122;5.404;2023-12-28T05:52:57;6.97;;;0.85;;
75413;SDS011;64758;52.122;5.404;2023-12-28T05:55:24;5.80;;;0.97;;
75413;SDS011;64758;52.122;5.404;2023-12-28T05:57:51;6.30;;;0.60;;
75413;SDS011;64758;52.122;5.404;2023-12-28T06:00:18;8.85;;;1.30;;
75413;SDS011;64758;52.122;5.404;2023-12-28T06:02:45;9.75;;;0.93;;
75413;SDS011;64758;52.122;5.404;2023-12-28T06:05:13;4.28;;;0.80;;
75413;SDS011;64758;52.122;5.404;2023-12-28T06:07:39;10.73;;;0.90;;
75413;SDS011;64758;52.122;5.404;2023-12-28T06:10:07;7.90;;;1.30;;
75413;SDS011;64758;52.122;5.404;2023-12-28T06:12:34;7.72;;;0.90;;
75413;SDS011;64758;52.122;5.404;2023-12-28T06:15:01;6.47;;;1.00;;
75413;SDS011;64758;52.122;5.404;2023-12-28T06:17:29;8.10;;;0.80;;
75413;SDS011;64758;52.122;5.404;2023-12-28T06:20:00;7.73;;;1.00;;
75413;SDS011;64758;52.122;5.404;2023-12-28T06:22:26;6.18;;;0.82;;
75413;SDS011;64758;52.122;5.404;2023-12-28T06:24:54;6.60;;;0.93;;
75413;SDS011;64758;52.122;5.404;2023-12-28T06:27:21;9.63;;;0.90;;
75413;SDS011;64758;52.122;5.404;2023-12-28T06:29:49;6.03;;;0.80;;
75413;SDS011;64758;52.122;5.404;2023-12-28T06:32:15;6.73;;;0.73;;
75413;SDS011;64758;52.122;5.404;2023-12-28T06:34:42;9.40;;;0.80;;
75413;SDS011;64758;52.122;5.404;2023-12-28T06:37:09;4.60;;;0.77;;
75413;SDS011;64758;52.122;5.404;2023-12-28T06:39:36;6.32;;;0.95;;
75413;SDS011;64758;52.122;5.404;2023-12-28T06:42:02;7.00;;;0.80;;
75413;SDS011;64758;52.122;5.404;2023-12-28T06:44:29;11.73;;;1.20;;
75413;SDS011;64758;52.122;5.404;2023-12-28T06:46:56;8.32;;;0.90;;
75413;SDS011;64758;52.122;5.404;2023-12-28T06:49:22;7.97;;;1.23;;
75413;SDS011;64758;52.122;5.404;2023-12-28T06:51:49;10.27;;;0.95;;
75413;SDS011;64758;52.122;5.404;2023-12-28T06:54:15;6.82;;;0.75;;
75413;SDS011;64758;52.122;5.404;2023-12-28T06:56:42;11.67;;;1.00;;
75413;SDS011;64758;52.122;5.404;2023-12-28T06:59:09;11.13;;;1.25;;
75413;SDS011;64758;52.122;5.404;2023-12-28T07:01:38;6.55;;;1.00;;
75413;SDS011;64758;52.122;5.404;2023-12-28T07:04:05;10.50;;;1.08;;
75413;SDS011;64758;52.122;5.404;2023-12-28T07:06:32;11.20;;;1.02;;
75413;SDS011;64758;52.122;5.404;2023-12-28T07:08:58;13.40;;;1.17;;
75413;SDS011;64758;52.122;5.404;2023-12-28T07:11:25;14.10;;;2.28;;
75413;SDS011;64758;52.122;5.404;2023-12-28T07:13:54;8.98;;;0.98;;
75413;SDS011;64758;52.122;5.404;2023-12-28T07:16:21;12.38;;;1.30;;
75413;SDS011;64758;52.122;5.404;2023-12-28T07:18:47;8.93;;;0.98;;
75413;SDS011;64758;52.122;5.404;2023-12-28T07:21:14;6.27;;;0.70;;
75413;SDS011;64758;52.122;5.404;2023-12-28T07:23:41;7.20;;;0.88;;
75413;SDS011;64758;52.122;5.404;2023-12-28T07:26:07;9.27;;;1.00;;
75413;SDS011;64758;52.122;5.404;2023-12-28T07:28:34;7.25;;;1.05;;
75413;SDS011;64758;52.122;5.404;2023-12-28T07:31:00;9.00;;;1.23;;
75413;SDS011;64758;52.122;5.404;2023-12-28T07:33:27;6.80;;;0.93;;
75413;SDS011;64758;52.122;5.404;2023-12-28T07:35:54;12.40;;;1.27;;
75413;SDS011;64758;52.122;5.404;2023-12-28T07:38:20;9.25;;;1.00;;
75413;SDS011;64758;52.122;5.404;2023-12-28T07:40:47;13.88;;;1.00;;
75413;SDS011;64758;52.122;5.404;2023-12-28T07:43:13;10.68;;;1.25;;
75413;SDS011;64758;52.122;5.404;2023-12-28T07:45:40;9.17;;;0.90;;
75413;SDS011;64758;52.122;5.404;2023-12-28T07:48:08;7.15;;;0.90;;
75413;SDS011;64758;52.122;5.404;2023-12-28T07:50:34;11.93;;;1.05;;
75413;SDS011;64758;52.122;5.404;2023-12-28T07:53:01;12.32;;;1.02;;
75413;SDS011;64758;52.122;5.404;2023-12-28T07:55:28;7.85;;;1.00;;
75413;SDS011;64758;52.122;5.404;2023-12-28T07:57:54;9.83;;;0.93;;
75413;SDS011;64758;52.122;5.404;2023-12-28T08:00:21;8.05;;;1.20;;
75413;SDS011;64758;52.122;5.404;2023-12-28T08:02:48;9.20;;;1.33;;
75413;SDS011;64758;52.122;5.404;2023-12-28T08:05:14;11.43;;;1.25;;
75413;SDS011;64758;52.122;5.404;2023-12-28T08:07:41;12.18;;;0.93;;
75413;SDS011;64758;52.122;5.404;2023-12-28T08:10:07;7.10;;;1.23;;
75413;SDS011;64758;52.122;5.404;2023-12-28T08:12:34;12.65;;;0.98;;
75413;SDS011;64758;52.122;5.404;2023-12-28T08:15:01;6.78;;;1.10;;
75413;SDS011;64758;52.122;5.404;2023-12-28T08:17:27;10.45;;;1.70;;
75413;SDS011;64758;52.122;5.404;2023-12-28T08:19:54;5.78;;;1.17;;
75413;SDS011;64758;52.122;5.404;2023-12-28T08:22:21;7.37;;;0.70;;
75413;SDS011;64758;52.122;5.404;2023-12-28T08:24:48;12.82;;;1.13;;
75413;SDS011;64758;52.122;5.404;2023-12-28T08:27:15;12.25;;;1.33;;
75413;SDS011;64758;52.122;5.404;2023-12-28T08:29:42;8.95;;;0.80;;
75413;SDS011;64758;52.122;5.404;2023-12-28T08:32:08;9.95;;;0.90;;
75413;SDS011;64758;52.122;5.404;2023-12-28T08:34:37;11.20;;;1.07;;
75413;SDS011;64758;52.122;5.404;2023-12-28T08:37:04;11.30;;;1.52;;
75413;SDS011;64758;52.122;5.404;2023-12-28T08:39:30;9.00;;;0.73;;
75413;SDS011;64758;52.122;5.404;2023-12-28T08:41:57;11.50;;;1.15;;
75413;SDS011;64758;52.122;5.404;2023-12-28T08:44:24;7.50;;;1.05;;
75413;SDS011;64758;52.122;5.404;2023-12-28T08:46:50;6.77;;;1.10;;
75413;SDS011;64758;52.122;5.404;2023-12-28T08:49:17;7.75;;;1.13;;
75413;SDS011;64758;52.122;5.404;2023-12-28T08:51:44;12.07;;;1.58;;
75413;SDS011;64758;52.122;5.404;2023-12-28T08:54:10;10.20;;;1.20;;
75413;SDS011;64758;52.122;5.404;2023-12-28T08:56:37;11.25;;;0.80;;
75413;SDS011;64758;52.122;5.404;2023-12-28T08:59:04;12.03;;;0.90;;
75413;SDS011;64758;52.122;5.404;2023-12-28T09:01:31;10.23;;;1.60;;
75413;SDS011;64758;52.122;5.404;2023-12-28T09:03:58;8.32;;;0.75;;
75413;SDS011;64758;52.122;5.404;2023-12-28T09:06:25;9.20;;;1.42;;
75413;SDS011;64758;52.122;5.404;2023-12-28T09:08:52;8.30;;;0.75;;
75413;SDS011;64758;52.122;5.404;2023-12-28T09:11:19;9.83;;;0.97;;
75413;SDS011;64758;52.122;5.404;2023-12-28T09:13:46;8.05;;;0.70;;
75413;SDS011;64758;52.122;5.404;2023-12-28T09:16:13;11.00;;;1.60;;
75413;SDS011;64758;52.122;5.404;2023-12-28T09:18:41;11.60;;;0.98;;
75413;SDS011;64758;52.122;5.404;2023-12-28T09:21:09;10.55;;;1.13;;
75413;SDS011;64758;52.122;5.404;2023-12-28T09:23:36;10.17;;;0.60;;
75413;SDS011;64758;52.122;5.404;2023-12-28T09:26:04;11.30;;;1.48;;
75413;SDS011;64758;52.122;5.404;2023-12-28T09:28:31;11.50;;;1.00;;
75413;SDS011;64758;52.122;5.404;2023-12-28T09:30:58;11.98;;;1.45;;
75413;SDS011;64758;52.122;5.404;2023-12-28T09:33:26;13.82;;;1.50;;
75413;SDS011;64758;52.122;5.404;2023-12-28T09:35:52;14.40;;;1.30;;
75413;SDS011;64758;52.122;5.404;2023-12-28T09:38:19;13.82;;;1.20;;
75413;SDS011;64758;52.122;5.404;2023-12-28T09:40:46;9.68;;;0.80;;
75413;SDS011;64758;52.122;5.404;2023-12-28T09:45:50;10.27;;;1.38;;
75413;SDS011;64758;52.122;5.404;2023-12-28T09:48:19;11.03;;;0.97;;
75413;SDS011;64758;52.122;5.404;2023-12-28T09:53:23;12.02;;;1.50;;
75413;SDS011;64758;52.122;5.404;2023-12-28T09:55:50;9.23;;;0.85;;
75413;SDS011;64758;52.122;5.404;2023-12-28T09:58:18;9.27;;;1.15;;
75413;SDS011;64758;52.122;5.404;2023-12-28T10:00:48;8.50;;;1.20;;
75413;SDS011;64758;52.122;5.404;2023-12-28T10:03:16;10.38;;;0.80;;
75413;SDS011;64758;52.122;5.404;2023-12-28T10:05:44;12.40;;;0.90;;
75413;SDS011;64758;52.122;5.404;2023-12-28T10:08:12;16.10;;;1.50;;
75413;SDS011;64758;52.122;5.404;2023-12-28T10:10:39;15.63;;;0.98;;
75413;SDS011;64758;52.122;5.404;2023-12-28T10:13:07;7.77;;;0.90;;
75413;SDS011;64758;52.122;5.404;2023-12-28T10:15:37;16.83;;;0.95;;
75413;SDS011;64758;52.122;5.404;2023-12-28T10:18:04;8.27;;;1.08;;
75413;SDS011;64758;52.122;5.404;2023-12-28T10:20:31;5.38;;;0.65;;
75413;SDS011;64758;52.122;5.404;2023-12-28T10:22:58;11.20;;;1.42;;
75413;SDS011;64758;52.122;5.404;2023-12-28T10:25:28;10.63;;;0.83;;
75413;SDS011;64758;52.122;5.404;2023-12-28T10:27:55;10.45;;;1.45;;
75413;SDS011;64758;52.122;5.404;2023-12-28T10:30:21;12.60;;;1.73;;
75413;SDS011;64758;52.122;5.404;2023-12-28T10:32:49;8.13;;;0.82;;
75413;SDS011;64758;52.122;5.404;2023-12-28T10:35:16;10.68;;;1.00;;
75413;SDS011;64758;52.122;5.404;2023-12-28T10:37:43;8.07;;;1.00;;
75413;SDS011;64758;52.122;5.404;2023-12-28T10:40:14;8.85;;;0.90;;
75413;SDS011;64758;52.122;5.404;2023-12-28T10:42:46;8.95;;;1.70;;
75413;SDS011;64758;52.122;5.404;2023-12-28T10:45:23;11.32;;;1.15;;
75413;SDS011;64758;52.122;5.404;2023-12-28T10:48:04;9.38;;;1.23;;
75413;SDS011;64758;52.122;5.404;2023-12-28T10:50:39;13.70;;;1.00;;
75413;SDS011;64758;52.122;5.404;2023-12-28T11:01:33;13.35;;;1.33;;
75413;SDS011;64758;52.122;5.404;2023-12-28T11:04:10;11.13;;;1.20;;
75413;SDS011;64758;52.122;5.404;2023-12-28T11:06:56;11.02;;;1.00;;
75413;SDS011;64758;52.122;5.404;2023-12-28T11:09:24;7.93;;;1.10;;
75413;SDS011;64758;52.122;5.404;2023-12-28T11:11:56;12.60;;;0.98;;
75413;SDS011;64758;52.122;5.404;2023-12-28T11:14:27;11.07;;;1.05;;
75413;SDS011;64758;52.122;5.404;2023-12-28T11:16:54;10.60;;;1.37;;
75413;SDS011;64758;52.122;5.404;2023-12-28T11:19:21;12.07;;;1.25;;
75413;SDS011;64758;52.122;5.404;2023-12-28T11:21:49;14.10;;;1.08;;
75413;SDS011;64758;52.122;5.404;2023-12-28T11:24:17;10.27;;;1.17;;
75413;SDS011;64758;52.122;5.404;2023-12-28T11:26:45;10.40;;;1.35;;
75413;SDS011;64758;52.122;5.404;2023-12-28T11:29:21;13.27;;;1.17;;
75413;SDS011;64758;52.122;5.404;2023-12-28T11:31:51;9.60;;;1.10;;
75413;SDS011;64758;52.122;5.404;2023-12-28T11:34:18;12.48;;;1.30;;
75413;SDS011;64758;52.122;5.404;2023-12-28T11:36:52;11.38;;;1.23;;
75413;SDS011;64758;52.122;5.404;2023-12-28T11:39:26;12.95;;;1.50;;
75413;SDS011;64758;52.122;5.404;2023-12-28T11:42:04;6.90;;;0.67;;
75413;SDS011;64758;52.122;5.404;2023-12-28T11:44:36;14.38;;;1.25;;
75413;SDS011;64758;52.122;5.404;2023-12-28T11:47:14;12.63;;;1.13;;
75413;SDS011;64758;52.122;5.404;2023-12-28T11:49:51;16.15;;;1.45;;
75413;SDS011;64758;52.122;5.404;2023-12-28T11:52:22;13.07;;;1.17;;
75413;SDS011;64758;52.122;5.404;2023-12-28T11:54:49;14.30;;;1.40;;
75413;SDS011;64758;52.122;5.404;2023-12-28T11:57:16;10.68;;;1.00;;
75413;SDS011;64758;52.122;5.404;2023-12-28T11:59:43;6.95;;;1.33;;
75413;SDS011;64758;52.122;5.404;2023-12-28T12:02:10;12.70;;;1.65;;
75413;SDS011;64758;52.122;5.404;2023-12-28T12:04:37;8.70;;;1.33;;
75413;SDS011;64758;52.122;5.404;2023-12-28T12:07:04;9.80;;;1.37;;
75413;SDS011;64758;52.122;5.404;2023-12-28T12:09:31;11.48;;;1.00;;
75413;SDS011;64758;52.122;5.404;2023-12-28T12:12:01;14.52;;;1.35;;
75413;SDS011;64758;52.122;5.404;2023-12-28T12:14:29;9.73;;;1.42;;
75413;SDS011;64758;52.122;5.404;2023-12-28T12:16:56;9.25;;;1.42;;
75413;SDS011;64758;52.122;5.404;2023-12-28T12:19:24;7.83;;;0.70;;
75413;SDS011;64758;52.122;5.404;2023-12-28T12:21:54;11.20;;;1.35;;
75413;SDS011;64758;52.122;5.404;2023-12-28T12:24:22;11.60;;;0.98;;
75413;SDS011;64758;52.122;5.404;2023-12-28T12:26:50;13.32;;;1.13;;
75413;SDS011;64758;52.122;5.404;2023-12-28T12:29:18;12.80;;;1.17;;
75413;SDS011;64758;52.122;5.404;2023-12-28T12:31:51;13.13;;;0.93;;
75413;SDS011;64758;52.122;5.404;2023-12-28T12:34:18;11.82;;;0.95;;
75413;SDS011;64758;52.122;5.404;2023-12-28T12:36:45;11.63;;;1.45;;
75413;SDS011;64758;52.122;5.404;2023-12-28T12:39:11;13.75;;;1.55;;
75413;SDS011;64758;52.122;5.404;2023-12-28T12:41:39;11.57;;;1.40;;
75413;SDS011;64758;52.122;5.404;2023-12-28T12:44:07;11.77;;;1.27;;
75413;SDS011;64758;52.122;5.404;2023-12-28T12:46:36;10.13;;;1.20;;
75413;SDS011;64758;52.122;5.404;2023-12-28T12:49:03;10.00;;;1.65;;
75413;SDS011;64758;52.122;5.404;2023-12-28T12:51:31;13.43;;;1.38;;
75413;SDS011;64758;52.122;5.404;2023-12-28T12:53:58;8.10;;;0.90;;
75413;SDS011;64758;52.122;5.404;2023-12-28T12:56:26;8.77;;;1.23;;
75413;SDS011;64758;52.122;5.404;2023-12-28T12:58:54;14.30;;;1.30;;
75413;SDS011;64758;52.122;5.404;2023-12-28T13:01:21;9.50;;;1.67;;
75413;SDS011;64758;52.122;5.404;2023-12-28T13:03:49;11.45;;;1.25;;
75413;SDS011;64758;52.122;5.404;2023-12-28T13:06:16;12.18;;;1.50;;
75413;SDS011;64758;52.122;5.404;2023-12-28T13:08:44;10.33;;;1.37;;
75413;SDS011;64758;52.122;5.404;2023-12-28T13:11:11;15.90;;;1.00;;
75413;SDS011;64758;52.122;5.404;2023-12-28T13:13:38;13.65;;;1.13;;
75413;SDS011;64758;52.122;5.404;2023-12-28T13:16:04;13.98;;;1.50;;
75413;SDS011;64758;52.122;5.404;2023-12-28T13:18:31;7.38;;;1.33;;
75413;SDS011;64758;52.122;5.404;2023-12-28T13:20:58;8.93;;;1.23;;
75413;SDS011;64758;52.122;5.404;2023-12-28T13:23:25;12.80;;;1.45;;
75413;SDS011;64758;52.122;5.404;2023-12-28T13:25:52;14.13;;;1.20;;
75413;SDS011;64758;52.122;5.404;2023-12-28T13:28:18;12.52;;;1.70;;
75413;SDS011;64758;52.122;5.404;2023-12-28T13:30:45;8.48;;;1.05;;
75413;SDS011;64758;52.122;5.404;2023-12-28T13:33:11;9.07;;;0.97;;
75413;SDS011;64758;52.122;5.404;2023-12-28T13:35:38;12.13;;;1.52;;
75413;SDS011;64758;52.122;5.404;2023-12-28T13:38:05;7.40;;;1.10;;
75413;SDS011;64758;52.122;5.404;2023-12-28T13:40:31;13.63;;;1.17;;
75413;SDS011;64758;52.122;5.404;2023-12-28T13:42:58;15.18;;;1.67;;
75413;SDS011;64758;52.122;5.404;2023-12-28T13:45:25;12.10;;;0.93;;
75413;SDS011;64758;52.122;5.404;2023-12-28T13:47:51;12.23;;;1.02;;
75413;SDS011;64758;52.122;5.404;2023-12-28T13:50:19;14.93;;;0.90;;
75413;SDS011;64758;52.122;5.404;2023-12-28T13:52:48;6.68;;;0.90;;
75413;SDS011;64758;52.122;5.404;2023-12-28T13:55:15;12.25;;;1.13;;
75413;SDS011;64758;52.122;5.404;2023-12-28T13:57:42;8.90;;;0.80;;
75413;SDS011;64758;52.122;5.404;2023-12-28T14:00:08;11.52;;;1.20;;
75413;SDS011;64758;52.122;5.404;2023-12-28T14:02:35;6.63;;;1.00;;
75413;SDS011;64758;52.122;5.404;2023-12-28T14:05:02;10.48;;;1.08;;
75413;SDS011;64758;52.122;5.404;2023-12-28T14:07:29;12.63;;;1.70;;
75413;SDS011;64758;52.122;5.404;2023-12-28T14:09:55;13.00;;;1.40;;
75413;SDS011;64758;52.122;5.404;2023-12-28T14:12:22;7.25;;;0.90;;
75413;SDS011;64758;52.122;5.404;2023-12-28T14:14:49;14.43;;;1.58;;
75413;SDS011;64758;52.122;5.404;2023-12-28T14:17:15;11.52;;;1.42;;
75413;SDS011;64758;52.122;5.404;2023-12-28T14:19:46;8.85;;;1.20;;
75413;SDS011;64758;52.122;5.404;2023-12-28T14:22:13;8.47;;;1.10;;
75413;SDS011;64758;52.122;5.404;2023-12-28T14:24:39;15.93;;;1.10;;
75413;SDS011;64758;52.122;5.404;2023-12-28T14:27:06;12.52;;;1.23;;
75413;SDS011;64758;52.122;5.404;2023-12-28T14:29:33;11.68;;;1.67;;
75413;SDS011;64758;52.122;5.404;2023-12-28T14:32:00;13.48;;;1.85;;
75413;SDS011;64758;52.122;5.404;2023-12-28T14:34:27;6.17;;;0.63;;
75413;SDS011;64758;52.122;5.404;2023-12-28T14:36:57;14.30;;;0.93;;
75413;SDS011;64758;52.122;5.404;2023-12-28T14:39:23;11.35;;;1.08;;
75413;SDS011;64758;52.122;5.404;2023-12-28T14:41:50;12.38;;;1.02;;
75413;SDS011;64758;52.122;5.404;2023-12-28T14:44:16;11.57;;;1.25;;
75413;SDS011;64758;52.122;5.404;2023-12-28T14:46:43;9.90;;;1.10;;
75413;SDS011;64758;52.122;5.404;2023-12-28T14:49:10;9.30;;;1.52;;
75413;SDS011;64758;52.122;5.404;2023-12-28T14:51:36;14.68;;;1.05;;
75413;SDS011;64758;52.122;5.404;2023-12-28T14:54:04;9.40;;;1.50;;
75413;SDS011;64758;52.122;5.404;2023-12-28T14:56:31;12.43;;;1.13;;
75413;SDS011;64758;52.122;5.404;2023-12-28T14:59:10;10.80;;;1.43;;
75413;SDS011;64758;52.122;5.404;2023-12-28T15:01:37;13.38;;;1.67;;
75413;SDS011;64758;52.122;5.404;2023-12-28T15:04:03;8.98;;;1.10;;